createdAt,value
2022-07-30T00:03:40.528Z,2
2022-07-30T00:10:00.453Z,2
2022-07-30T00:16:23.549Z,1.9
2022-07-30T00:22:43.461Z,1.9
2022-07-30T00:29:06.470Z,1.7
2022-07-30T00:35:26.495Z,1.7
2022-07-30T00:41:49.462Z,1.3
2022-07-30T00:48:09.510Z,1.3
2022-07-30T00:54:32.463Z,2.8
2022-07-30T01:00:52.537Z,2.8
2022-07-30T01:07:15.515Z,1.9
2022-07-30T01:13:35.464Z,1.9
2022-07-30T01:19:58.525Z,1.3
2022-07-30T01:26:18.465Z,1.3
2022-07-30T01:32:41.513Z,1.6
2022-07-30T01:39:01.486Z,1.6
2022-07-30T01:45:24.494Z,1
2022-07-30T01:51:44.513Z,1
2022-07-30T01:58:07.491Z,3.5
2022-07-30T02:04:27.507Z,3.5
2022-07-30T02:10:50.491Z,2.5
2022-07-30T02:17:18.768Z,2.5
2022-07-30T02:23:33.504Z,1.5
2022-07-30T02:29:53.465Z,1.5
2022-07-30T02:36:16.539Z,2.9
2022-07-30T02:42:36.469Z,2.9
2022-07-30T02:48:59.494Z,1.7
2022-07-30T02:55:19.532Z,1.7
2022-07-30T03:01:42.530Z,2
2022-07-30T03:08:02.511Z,2
2022-07-30T03:14:25.563Z,1.3
2022-07-30T03:20:45.491Z,1.3
2022-07-30T03:27:08.497Z,2.7
2022-07-30T03:33:38.048Z,2.7
2022-07-30T03:39:51.532Z,1.6
2022-07-30T03:46:11.557Z,1.6
2022-07-30T03:52:34.542Z,2.8
2022-07-30T04:09:17.147Z,3.7
2022-07-30T04:16:04.721Z,5.8
2022-07-30T04:21:59.473Z,5.8
2022-07-30T04:28:22.589Z,5.8
2022-07-30T04:34:42.474Z,5.8
2022-07-30T04:41:05.528Z,3.6
2022-07-30T04:47:25.488Z,3.6
2022-07-30T04:53:48.490Z,2.8
2022-07-30T05:00:08.528Z,2.8
2022-07-30T05:06:31.493Z,3.4
2022-07-30T05:12:51.496Z,3.4
2022-07-30T05:19:14.510Z,4.2
2022-07-30T05:25:34.472Z,4.2
2022-07-30T05:31:57.889Z,3.4
2022-07-30T05:38:17.491Z,3.4
2022-07-30T05:44:40.493Z,4.5
2022-07-30T05:51:00.497Z,4.5
2022-07-30T05:57:23.484Z,3.4
2022-07-30T06:03:43.529Z,3.4
2022-07-30T06:10:06.475Z,5.2
2022-07-30T06:16:26.509Z,5.2
2022-07-30T06:22:49.487Z,4.5
2022-07-30T06:29:09.495Z,4.5
2022-07-30T06:35:32.525Z,4.9
2022-07-30T06:41:52.464Z,4.9
2022-07-30T06:48:15.499Z,3.8
2022-07-30T06:54:35.500Z,3.8
2022-07-30T07:00:58.550Z,8
2022-07-30T07:07:31.713Z,8
2022-07-30T07:13:41.487Z,7.4
2022-07-30T07:20:02.696Z,7.4
2022-07-30T07:26:24.509Z,8.3
2022-07-30T07:32:44.484Z,8.3
2022-07-30T07:39:07.552Z,5.2
2022-07-30T07:45:27.474Z,5.2
2022-07-30T07:51:50.500Z,6.6
2022-07-30T07:58:10.518Z,6.6
2022-07-30T08:04:33.475Z,5
2022-07-30T08:10:53.514Z,5
2022-07-30T08:17:16.536Z,10.3
2022-07-30T08:23:39.745Z,10.3
2022-07-30T08:29:59.749Z,3.9
2022-07-30T08:36:22.752Z,3.9
2022-07-30T08:42:42.539Z,5.8
2022-07-30T08:49:07.872Z,5.8
2022-07-30T08:55:25.498Z,5.1
2022-07-30T09:01:45.516Z,5.1
2022-07-30T09:08:09.006Z,4.9
2022-07-30T09:14:30.123Z,4.9
2022-07-30T09:20:51.476Z,5.7
2022-07-30T09:27:11.499Z,5.7
2022-07-30T09:33:34.504Z,5.5
2022-07-30T09:39:56.743Z,5.5
2022-07-30T10:04:41.494Z,9
2022-07-30T10:11:04.936Z,8.8
2022-07-30T10:17:25.273Z,8.8
2022-07-30T10:23:49.210Z,4.6
2022-07-30T10:30:07.473Z,4.6
2022-07-30T10:36:30.519Z,4.5
2022-07-30T10:42:50.478Z,4.5
2022-07-30T10:49:14.222Z,2.9
2022-07-30T10:55:37.681Z,2.9
2022-07-30T11:01:57.778Z,2.7
2022-07-30T11:08:17.602Z,2.7
2022-07-30T11:14:41.023Z,4.3
2022-07-30T11:21:00.566Z,4.3
2022-07-30T11:27:23.558Z,1.6
2022-07-30T11:33:43.547Z,1.6
2022-07-30T11:40:06.509Z,4
2022-07-30T11:46:29.120Z,4
2022-07-30T11:52:49.565Z,1.4
2022-07-30T11:59:09.487Z,1.4
2022-07-30T12:05:32.545Z,0.9
2022-07-30T12:11:52.480Z,0.9
2022-07-30T12:18:26.115Z,2.3
2022-07-30T12:24:35.518Z,2.3
2022-07-30T12:30:58.478Z,1.1
2022-07-30T12:37:18.501Z,1.1
2022-07-30T12:43:41.480Z,2.1
2022-07-30T12:50:01.931Z,2.1
2022-07-30T12:56:24.520Z,1.2
2022-07-30T13:02:44.470Z,1.2
2022-07-30T13:09:07.523Z,2.9
2022-07-30T13:15:27.485Z,2.9
2022-07-30T13:21:50.537Z,1.6
2022-07-30T13:28:10.524Z,1.6
2022-07-30T13:34:33.475Z,0.9
2022-07-30T13:40:53.715Z,0.9
2022-07-30T13:47:16.485Z,1.3
2022-07-30T13:53:36.522Z,1.3
2022-07-30T13:59:59.473Z,1.7
2022-07-30T14:06:19.475Z,1.7
2022-07-30T14:12:42.520Z,2.1
2022-07-30T14:19:02.466Z,2.1
2022-07-30T14:25:25.527Z,1.7
2022-07-30T14:31:45.483Z,1.7
2022-07-30T14:38:08.485Z,1.1
2022-07-30T14:44:28.521Z,1.1
2022-07-30T14:51:11.950Z,1.7
2022-07-30T14:57:11.718Z,1.7
2022-07-30T15:03:34.734Z,0.8
2022-07-30T15:09:54.777Z,0.8
2022-07-30T15:16:17.544Z,2.1
2022-07-30T15:31:49.427Z,0.9
2022-07-30T15:38:09.463Z,0.9
2022-07-30T15:44:32.496Z,3.3
2022-07-30T15:50:52.486Z,3.3
2022-07-30T15:57:15.484Z,3.3
2022-07-30T16:03:35.529Z,3.3
2022-07-30T16:09:58.516Z,2
2022-07-30T16:16:18.514Z,2
2022-07-30T16:22:41.481Z,4
2022-07-30T16:29:01.497Z,4
2022-07-30T16:35:24.501Z,1.5
2022-07-30T16:41:44.491Z,1.5
2022-07-30T16:48:07.541Z,1
2022-07-30T16:54:27.481Z,1
2022-07-30T17:00:50.593Z,1.7
2022-07-30T17:07:10.481Z,1.7
2022-07-30T17:13:33.479Z,1.2
2022-07-30T17:19:53.545Z,1.2
2022-07-30T17:26:16.472Z,0.9
2022-07-30T17:32:36.496Z,0.9
2022-07-30T17:38:59.512Z,2
2022-07-30T17:45:19.474Z,2
2022-07-30T17:51:42.522Z,0.7
2022-07-30T17:58:02.476Z,0.7
2022-07-30T18:04:25.525Z,1.5
2022-07-30T18:10:45.473Z,1.5
2022-07-30T18:17:12.497Z,1.3
2022-07-30T18:23:29.823Z,1.3
2022-07-30T18:29:51.475Z,0.4
2022-07-30T18:36:11.528Z,0.4
2022-07-30T18:42:34.487Z,0.5
2022-07-30T18:48:54.543Z,0.5
2022-07-30T18:55:17.519Z,0.9
2022-07-30T19:01:37.508Z,0.9
2022-07-30T19:08:00.545Z,1.8
2022-07-30T19:14:20.464Z,1.8
2022-07-30T19:20:43.504Z,0.9
2022-07-30T19:27:03.480Z,0.9
2022-07-30T19:33:26.474Z,1
2022-07-30T19:39:58.761Z,1
2022-07-30T19:46:09.690Z,1.7
2022-07-30T19:52:29.703Z,1.7
2022-07-30T19:58:52.512Z,0.4
2022-07-30T20:05:12.470Z,0.4
2022-07-30T20:11:36.455Z,1.3
2022-07-30T20:17:55.457Z,1.3
2022-07-30T20:24:18.524Z,0.3
2022-07-30T20:30:38.465Z,0.3
2022-07-30T20:43:21.493Z,1.1
2022-07-30T20:49:44.490Z,0.6
2022-07-30T20:56:04.507Z,0.6
2022-07-30T21:02:28.289Z,1
2022-07-30T21:18:16.446Z,2.5
2022-07-30T21:24:36.442Z,2.5
2022-07-30T21:30:59.460Z,2.1
2022-07-30T21:37:19.511Z,2.1
2022-07-30T21:43:42.456Z,2
2022-07-30T21:50:02.991Z,2
2022-07-30T21:56:25.773Z,1
2022-07-30T22:21:57.478Z,2.2
2022-07-30T22:28:17.513Z,2.2
2022-07-30T22:34:40.459Z,2.2
2022-07-30T22:41:00.447Z,2.2
2022-07-30T22:47:50.497Z,1.1
2022-07-30T23:00:06.504Z,0.4
2022-07-30T23:06:26.470Z,0.4
2022-07-30T23:12:18.838Z,1.1
2022-07-30T23:12:33.465Z,1.1
2022-07-30T23:12:49.538Z,1.8
2022-07-30T23:19:09.504Z,1.8
2022-07-30T23:25:34.534Z,1.6
2022-07-30T23:31:52.477Z,1.6
2022-07-30T23:38:15.490Z,0.4
2022-07-30T23:44:37.144Z,0.4
2022-07-30T23:50:58.483Z,0.7
2022-07-30T23:57:18.453Z,0.7
